Time;durP1;ratioP1;P1;durP2;ratioP2;P2;SDS_P1;SDS_P2;PMS_P1;PMS_P2;Temp;Humidity;BMP_temperature;BMP_pressure;BME280_temperature;BME280_humidity;BME280_pressure;Samples;Min_cycle;Max_cycle;Signal;HPM_P1;HPM_P2
2024/01/17 00:00:29;;;;;;;12.18;5.40;;;-2.00;99.90;;;;;;5019887;28;20022;-60
2024/01/17 00:02:55;;;;;;;8.82;4.88;;;-2.10;99.90;;;;;;5013441;28;20068;-60
2024/01/17 00:05:22;;;;;;;13.80;5.88;;;-2.10;99.90;;;;;;5007961;28;20022;-59
2024/01/17 00:07:48;;;;;;;12.00;5.47;;;-2.20;99.90;;;;;;5007637;28;20659;-60
2024/01/17 00:10:14;;;;;;;9.77;5.32;;;-2.30;99.90;;;;;;5013018;28;20044;-60
2024/01/17 00:12:40;;;;;;;21.10;7.22;;;-2.30;99.90;;;;;;5018085;28;20029;-60
2024/01/17 00:15:06;;;;;;;16.52;6.68;;;-2.30;99.90;;;;;;5019622;28;20029;-60
2024/01/17 00:17:31;;;;;;;12.48;6.57;;;-2.40;99.90;;;;;;5015860;28;20470;-60
2024/01/17 00:19:57;;;;;;;16.80;7.47;;;-2.40;99.90;;;;;;5019603;28;20037;-60
2024/01/17 00:22:22;;;;;;;14.23;7.05;;;-2.40;99.90;;;;;;5012046;28;20123;-60
2024/01/17 00:24:49;;;;;;;16.38;9.18;;;-2.40;99.90;;;;;;5010124;28;20037;-60
2024/01/17 00:27:14;;;;;;;14.23;7.45;;;-2.40;99.90;;;;;;5017125;28;20021;-60
2024/01/17 00:29:40;;;;;;;14.82;6.60;;;-2.30;99.90;;;;;;5019683;28;20037;-60
2024/01/17 00:32:05;;;;;;;18.50;9.68;;;-2.30;99.90;;;;;;5019922;28;20049;-60
2024/01/17 00:34:31;;;;;;;13.45;6.93;;;-2.40;99.90;;;;;;5017251;28;20742;-60
2024/01/17 00:36:56;;;;;;;16.13;8.60;;;-2.40;99.90;;;;;;5011340;28;20029;-59
2024/01/17 00:39:22;;;;;;;15.35;8.13;;;-2.30;99.90;;;;;;5019521;28;20071;-60
2024/01/17 00:41:48;;;;;;;17.95;8.30;;;-2.40;99.90;;;;;;5017531;28;20033;-59
2024/01/17 00:44:17;;;;;;;24.05;9.50;;;-2.40;99.90;;;;;;5013528;28;20030;-60
2024/01/17 00:46:43;;;;;;;15.88;7.30;;;-2.40;99.90;;;;;;5014485;28;20035;-60
2024/01/17 00:49:08;;;;;;;18.92;8.63;;;-2.30;99.90;;;;;;5011197;28;20029;-60
2024/01/17 00:51:34;;;;;;;21.73;9.05;;;-2.20;99.90;;;;;;5011541;28;20052;-60
2024/01/17 00:54:00;;;;;;;18.10;8.30;;;-2.10;99.90;;;;;;5014160;28;20079;-60
2024/01/17 00:56:26;;;;;;;13.68;7.90;;;-2.00;99.90;;;;;;5008375;28;20036;-60
2024/01/17 00:58:52;;;;;;;16.35;8.25;;;-1.90;99.90;;;;;;5010820;28;20074;-60
2024/01/17 01:01:18;;;;;;;20.83;9.80;;;-1.90;99.90;;;;;;5013653;28;20060;-59
2024/01/17 01:03:44;;;;;;;23.67;12.75;;;-1.80;99.90;;;;;;5015242;28;20033;-60
2024/01/17 01:06:09;;;;;;;16.38;8.80;;;-1.70;99.90;;;;;;5014522;28;20383;-60
2024/01/17 01:08:34;;;;;;;21.58;8.77;;;-1.70;99.90;;;;;;5011646;28;20107;-60
2024/01/17 01:11:00;;;;;;;16.67;8.75;;;-1.70;99.90;;;;;;5012069;28;20025;-59
2024/01/17 01:13:25;;;;;;;16.45;9.40;;;-1.70;99.90;;;;;;5013583;28;20401;-60
2024/01/17 01:15:51;;;;;;;14.52;9.00;;;-1.80;99.90;;;;;;5015774;28;20025;-59
2024/01/17 01:18:16;;;;;;;16.73;7.78;;;-1.90;99.90;;;;;;5011182;28;20026;-60
2024/01/17 01:20:42;;;;;;;14.15;7.88;;;-2.00;99.90;;;;;;5011889;28;20022;-60
2024/01/17 01:23:07;;;;;;;15.32;8.20;;;-2.00;99.90;;;;;;5018746;28;20447;-59
2024/01/17 01:25:33;;;;;;;20.90;8.43;;;-2.10;99.90;;;;;;5011838;28;20139;-60
2024/01/17 01:27:58;;;;;;;15.98;7.75;;;-2.20;99.90;;;;;;5013568;28;20030;-59
2024/01/17 01:30:24;;;;;;;18.52;9.95;;;-2.30;99.90;;;;;;5018847;28;20033;-60
2024/01/17 01:32:49;;;;;;;17.38;7.28;;;-2.30;99.90;;;;;;5011891;28;20048;-60
2024/01/17 01:35:15;;;;;;;14.98;8.05;;;-2.40;99.90;;;;;;5017163;28;20029;-60
2024/01/17 01:37:40;;;;;;;17.95;8.60;;;-2.50;99.90;;;;;;5016760;28;20481;-59
2024/01/17 01:40:10;;;;;;;18.75;9.68;;;-2.50;99.90;;;;;;5016119;28;20045;-60
2024/01/17 01:42:36;;;;;;;20.15;8.95;;;-2.50;99.90;;;;;;5012738;28;20084;-59
2024/01/17 01:45:02;;;;;;;15.73;8.02;;;-2.50;99.90;;;;;;5016178;28;20036;-59
2024/01/17 01:47:28;;;;;;;17.65;9.63;;;-2.60;99.90;;;;;;5016151;28;20033;-59
2024/01/17 01:49:54;;;;;;;16.50;8.55;;;-2.70;99.90;;;;;;5014879;28;20085;-59
2024/01/17 01:52:21;;;;;;;16.70;8.55;;;-2.70;99.90;;;;;;5015326;28;20059;-59
2024/01/17 01:54:47;;;;;;;20.85;8.35;;;-2.80;99.90;;;;;;5012356;28;20042;-59
2024/01/17 01:57:14;;;;;;;18.80;10.60;;;-2.80;99.90;;;;;;5013077;28;20064;-59
2024/01/17 01:59:39;;;;;;;16.63;7.53;;;-2.80;99.90;;;;;;5009736;28;20054;-59
2024/01/17 02:02:06;;;;;;;16.45;8.95;;;-2.90;99.90;;;;;;5013153;28;20047;-59
2024/01/17 02:04:34;;;;;;;14.60;8.38;;;-3.00;99.90;;;;;;5014668;28;20448;-60
2024/01/17 02:07:01;;;;;;;17.98;8.75;;;-3.00;99.90;;;;;;5015608;28;20437;-59
2024/01/17 02:09:29;;;;;;;14.68;7.65;;;-3.00;99.90;;;;;;5009108;28;20675;-60
2024/01/17 02:11:57;;;;;;;12.93;7.60;;;-3.00;99.90;;;;;;5016232;28;20021;-59
2024/01/17 02:14:24;;;;;;;18.77;9.82;;;-3.10;99.90;;;;;;5016061;28;20033;-60
2024/01/17 02:16:49;;;;;;;23.70;11.68;;;-3.10;99.90;;;;;;5013782;28;20049;-60
2024/01/17 02:19:16;;;;;;;21.67;9.20;;;-3.20;99.90;;;;;;5013780;28;20564;-67
2024/01/17 02:21:42;;;;;;;20.63;10.45;;;-3.10;99.90;;;;;;5018766;28;20027;-62
2024/01/17 02:24:18;;;;;;;21.20;11.02;;;-3.20;99.90;;;;;;5019828;28;20033;-62
2024/01/17 02:26:44;;;;;;;20.88;10.38;;;-3.20;99.90;;;;;;5019876;28;20202;-62
2024/01/17 02:29:10;;;;;;;21.58;11.55;;;-3.20;99.90;;;;;;5018917;28;20072;-62
2024/01/17 02:31:36;;;;;;;20.80;10.85;;;-3.20;99.90;;;;;;5020161;28;20114;-62
2024/01/17 02:34:03;;;;;;;19.15;11.23;;;-3.20;99.90;;;;;;5019933;28;20106;-63
2024/01/17 02:36:28;;;;;;;16.45;8.55;;;-3.20;99.90;;;;;;5019631;28;20402;-62
2024/01/17 02:38:54;;;;;;;18.40;9.88;;;-3.30;99.90;;;;;;5011476;28;20036;-62
2024/01/17 02:41:19;;;;;;;15.85;8.50;;;-3.30;99.90;;;;;;5011860;28;20076;-62
2024/01/17 02:43:45;;;;;;;15.73;7.78;;;-3.30;99.90;;;;;;5015119;28;20025;-62
2024/01/17 02:46:10;;;;;;;28.90;10.88;;;-3.30;99.90;;;;;;5013750;28;20064;-63
2024/01/17 02:48:36;;;;;;;21.23;12.32;;;-3.30;99.90;;;;;;5015924;28;20108;-62
2024/01/17 02:51:01;;;;;;;18.45;9.60;;;-3.30;99.90;;;;;;5011518;28;20052;-62
2024/01/17 02:53:27;;;;;;;17.92;9.38;;;-3.30;99.90;;;;;;5013639;28;20124;-62
2024/01/17 02:55:52;;;;;;;17.25;9.55;;;-3.40;99.90;;;;;;5008806;28;20065;-62
2024/01/17 02:58:18;;;;;;;19.20;8.95;;;-3.40;99.90;;;;;;5010956;28;20683;-62
2024/01/17 03:00:43;;;;;;;19.60;9.65;;;-3.40;99.90;;;;;;5017626;28;20018;-63
2024/01/17 03:03:10;;;;;;;14.85;8.40;;;-3.50;99.90;;;;;;5005863;28;20355;-62
2024/01/17 03:05:37;;;;;;;13.70;8.27;;;-3.50;99.90;;;;;;5012694;28;20044;-62
2024/01/17 03:08:04;;;;;;;28.42;11.73;;;-3.50;99.90;;;;;;5013149;28;20691;-62
2024/01/17 03:10:30;;;;;;;16.40;8.15;;;-3.60;99.90;;;;;;5013488;28;20120;-62
2024/01/17 03:12:56;;;;;;;24.90;11.07;;;-3.60;99.90;;;;;;5007023;28;20112;-62
2024/01/17 03:15:22;;;;;;;15.05;8.77;;;-3.60;99.90;;;;;;5012115;28;20083;-63
2024/01/17 03:17:47;;;;;;;26.35;10.65;;;-3.70;99.90;;;;;;5016038;28;20517;-63
2024/01/17 03:20:13;;;;;;;22.10;10.30;;;-3.70;99.90;;;;;;5015316;28;20068;-62
2024/01/17 03:22:39;;;;;;;19.67;9.13;;;-3.70;99.90;;;;;;5013231;28;20053;-62
2024/01/17 03:25:06;;;;;;;16.05;9.48;;;-3.80;99.90;;;;;;5013558;28;20063;-62
2024/01/17 03:27:31;;;;;;;19.65;9.98;;;-3.80;99.90;;;;;;5013849;28;20034;-62
2024/01/17 03:29:56;;;;;;;16.73;9.35;;;-3.80;99.90;;;;;;5017883;28;20056;-62
2024/01/17 03:32:22;;;;;;;20.88;9.10;;;-3.90;99.90;;;;;;5020438;28;20506;-62
2024/01/17 03:34:47;;;;;;;23.20;10.02;;;-3.90;99.90;;;;;;5015324;28;20034;-63
2024/01/17 03:37:13;;;;;;;16.50;8.65;;;-3.90;99.90;;;;;;5013028;28;20033;-62
2024/01/17 03:39:44;;;;;;;19.73;9.35;;;-3.90;99.90;;;;;;5017008;28;20487;-62
2024/01/17 03:42:15;;;;;;;18.73;8.82;;;-4.00;99.90;;;;;;5014210;28;20543;-62
2024/01/17 03:44:44;;;;;;;19.23;9.52;;;-4.00;99.90;;;;;;5011139;28;20030;-63
2024/01/17 03:47:10;;;;;;;15.23;8.20;;;-4.00;99.90;;;;;;5013615;28;20022;-62
2024/01/17 03:49:36;;;;;;;15.80;8.95;;;-4.10;99.90;;;;;;5017772;28;20029;-62
2024/01/17 03:52:02;;;;;;;21.67;11.40;;;-4.10;99.90;;;;;;5021246;28;20321;-62
2024/01/17 03:54:27;;;;;;;21.48;10.65;;;-4.20;99.90;;;;;;5016606;28;20116;-62
2024/01/17 03:56:53;;;;;;;33.13;12.77;;;-4.20;99.90;;;;;;5019176;28;20029;-62
2024/01/17 03:59:18;;;;;;;22.08;11.02;;;-4.20;99.90;;;;;;5016733;28;20514;-62
2024/01/17 04:01:45;;;;;;;31.63;14.63;;;-4.20;99.90;;;;;;5007815;28;20120;-62
2024/01/17 04:04:11;;;;;;;30.13;14.65;;;-4.20;99.90;;;;;;5018148;28;20029;-62
2024/01/17 04:06:36;;;;;;;27.95;12.15;;;-4.20;99.90;;;;;;5019057;28;20053;-62
2024/01/17 04:09:02;;;;;;;19.67;10.10;;;-4.20;99.90;;;;;;5020628;28;20029;-62
2024/01/17 04:11:27;;;;;;;25.23;11.68;;;-4.30;99.90;;;;;;5019305;28;20060;-62
2024/01/17 04:13:53;;;;;;;28.55;12.30;;;-4.30;99.90;;;;;;5010616;28;20058;-62
2024/01/17 04:16:18;;;;;;;28.20;10.90;;;-4.30;99.90;;;;;;5015309;28;20394;-62
2024/01/17 04:18:44;;;;;;;30.08;12.48;;;-4.30;99.90;;;;;;5020110;28;20033;-62
2024/01/17 04:21:19;;;;;;;21.05;10.20;;;-4.30;99.90;;;;;;5014276;28;20132;-62
2024/01/17 04:23:46;;;;;;;31.20;12.50;;;-4.30;99.90;;;;;;5016942;28;20021;-62
2024/01/17 04:26:23;;;;;;;32.97;12.10;;;-4.40;99.90;;;;;;5015584;28;20505;-62
2024/01/17 04:28:53;;;;;;;18.38;9.13;;;-4.30;99.90;;;;;;5022316;28;20029;-62
2024/01/17 04:31:25;;;;;;;18.73;9.98;;;-4.40;99.90;;;;;;5022826;28;20083;-62
2024/01/17 04:33:51;;;;;;;27.02;11.57;;;-4.40;99.90;;;;;;5022330;28;20159;-62
2024/01/17 04:36:18;;;;;;;22.40;10.73;;;-4.50;99.90;;;;;;5021854;28;20100;-62
2024/01/17 04:38:44;;;;;;;19.02;9.73;;;-4.50;99.90;;;;;;5022061;28;20026;-62
2024/01/17 04:41:13;;;;;;;20.55;9.77;;;-4.50;99.90;;;;;;5023790;28;20032;-62
2024/01/17 04:43:40;;;;;;;22.70;11.15;;;-4.50;99.90;;;;;;5019793;28;20481;-63
2024/01/17 04:46:06;;;;;;;18.35;9.77;;;-4.60;99.90;;;;;;5021653;28;20516;-63
2024/01/17 04:48:32;;;;;;;18.02;8.18;;;-4.50;99.90;;;;;;5013670;28;20040;-63
2024/01/17 04:50:58;;;;;;;17.15;8.65;;;-4.50;99.90;;;;;;5017709;28;20037;-62
2024/01/17 04:53:25;;;;;;;18.58;8.43;;;-4.50;99.90;;;;;;5021699;28;20080;-62
2024/01/17 04:55:50;;;;;;;14.50;7.88;;;-4.60;99.90;;;;;;5013521;28;20028;-62
2024/01/17 04:58:17;;;;;;;20.73;8.77;;;-4.60;99.90;;;;;;5019048;28;20041;-62
2024/01/17 05:00:46;;;;;;;16.17;7.57;;;-4.70;99.90;;;;;;5011757;28;20577;-62
2024/01/17 05:03:11;;;;;;;19.40;10.13;;;-4.70;99.90;;;;;;5007139;28;20033;-63
2024/01/17 05:05:36;;;;;;;20.60;9.55;;;-4.70;99.90;;;;;;5019140;28;20611;-63
2024/01/17 05:08:02;;;;;;;30.52;12.50;;;-4.70;99.90;;;;;;5015987;28;20025;-62
2024/01/17 05:10:28;;;;;;;27.98;11.55;;;-4.60;99.90;;;;;;5014594;28;20456;-61
2024/01/17 05:12:53;;;;;;;21.33;11.02;;;-4.60;99.90;;;;;;5013137;28;20037;-62
2024/01/17 05:15:19;;;;;;;21.52;11.15;;;-4.60;99.90;;;;;;5018105;28;20029;-63
2024/01/17 05:17:44;;;;;;;22.60;10.50;;;-4.60;99.90;;;;;;5013288;28;20397;-62
2024/01/17 05:20:10;;;;;;;23.55;11.18;;;-4.60;99.90;;;;;;5019759;28;20030;-63
2024/01/17 05:22:39;;;;;;;17.88;9.05;;;-4.60;99.90;;;;;;5015455;28;20040;-62
2024/01/17 05:25:08;;;;;;;26.50;11.15;;;-4.60;99.90;;;;;;5013544;28;20072;-62
2024/01/17 05:27:33;;;;;;;20.17;9.63;;;-4.70;99.90;;;;;;5014164;28;20029;-62
2024/01/17 05:29:59;;;;;;;23.75;11.80;;;-4.70;99.90;;;;;;5005521;28;20734;-62
2024/01/17 05:32:24;;;;;;;23.25;10.60;;;-4.70;99.90;;;;;;5023193;28;20085;-63
2024/01/17 05:34:50;;;;;;;34.15;12.10;;;-4.70;99.90;;;;;;5012787;28;20037;-65
2024/01/17 05:37:16;;;;;;;21.65;10.93;;;-4.70;99.90;;;;;;5014579;28;20700;-62
2024/01/17 05:39:41;;;;;;;23.95;11.27;;;-4.70;99.90;;;;;;5015157;28;20634;-63
2024/01/17 05:42:07;;;;;;;22.88;11.25;;;-4.70;99.90;;;;;;5016596;28;20111;-62
2024/01/17 05:44:32;;;;;;;21.83;11.73;;;-4.70;99.90;;;;;;5017802;28;20061;-63
2024/01/17 05:46:58;;;;;;;25.33;11.23;;;-4.70;99.90;;;;;;5016681;28;20108;-63
2024/01/17 05:49:23;;;;;;;33.22;12.90;;;-4.70;99.90;;;;;;5016890;28;20061;-62
2024/01/17 05:51:50;;;;;;;24.70;11.38;;;-4.70;99.90;;;;;;5014493;28;20448;-62
2024/01/17 05:54:15;;;;;;;20.00;9.57;;;-4.70;99.90;;;;;;5018255;28;20037;-63
2024/01/17 05:56:40;;;;;;;29.02;12.30;;;-4.70;99.90;;;;;;5014799;28;20048;-63
2024/01/17 05:59:06;;;;;;;22.90;11.10;;;-4.80;99.90;;;;;;5020142;28;20175;-62
2024/01/17 06:01:34;;;;;;;19.48;11.25;;;-4.80;99.90;;;;;;5015587;28;20026;-62
2024/01/17 06:03:59;;;;;;;22.40;11.38;;;-4.80;99.90;;;;;;5014174;28;20036;-62
2024/01/17 06:06:25;;;;;;;22.70;10.07;;;-4.80;99.90;;;;;;5012272;28;20037;-63
2024/01/17 06:08:50;;;;;;;25.20;10.32;;;-4.80;99.90;;;;;;5005950;28;20025;-62
2024/01/17 06:11:16;;;;;;;23.23;11.30;;;-4.80;99.90;;;;;;5013891;28;20029;-63
2024/01/17 06:13:41;;;;;;;22.80;11.75;;;-4.80;99.90;;;;;;5009813;28;20030;-64
2024/01/17 06:16:07;;;;;;;21.27;10.55;;;-4.80;99.90;;;;;;5018320;28;20025;-61
2024/01/17 06:18:33;;;;;;;20.50;9.90;;;-4.70;99.90;;;;;;5016854;28;20029;-63
2024/01/17 06:20:58;;;;;;;26.67;10.52;;;-4.70;99.90;;;;;;5007198;28;20021;-63
2024/01/17 06:23:24;;;;;;;21.70;10.43;;;-4.70;99.90;;;;;;5015456;28;20033;-62
2024/01/17 06:25:50;;;;;;;24.05;11.30;;;-4.70;99.90;;;;;;5007931;28;20408;-62
2024/01/17 06:28:18;;;;;;;29.02;12.70;;;-4.80;99.90;;;;;;5011816;28;20022;-63
2024/01/17 06:30:43;;;;;;;23.58;12.88;;;-4.70;99.90;;;;;;5011174;28;20044;-62
2024/01/17 06:33:10;;;;;;;29.55;11.45;;;-4.70;99.90;;;;;;5005243;28;20395;-62
2024/01/17 06:35:35;;;;;;;24.05;10.38;;;-4.80;99.90;;;;;;5009757;28;20076;-62
2024/01/17 06:38:01;;;;;;;18.67;10.38;;;-4.80;99.90;;;;;;5008357;28;20501;-63
2024/01/17 06:40:27;;;;;;;23.67;11.38;;;-4.80;99.90;;;;;;5014349;28;20033;-62
2024/01/17 06:42:52;;;;;;;32.05;14.02;;;-4.80;99.90;;;;;;5011228;28;20864;-62
2024/01/17 06:45:18;;;;;;;24.65;11.45;;;-4.80;99.90;;;;;;5012411;28;20060;-62
2024/01/17 06:47:43;;;;;;;24.42;11.32;;;-4.80;99.90;;;;;;5005844;28;20026;-62
2024/01/17 06:50:09;;;;;;;24.60;10.82;;;-4.70;99.90;;;;;;5008510;28;20030;-61
2024/01/17 06:52:35;;;;;;;18.63;10.48;;;-4.70;99.90;;;;;;5011470;28;20148;-62
2024/01/17 06:55:01;;;;;;;25.85;11.55;;;-4.70;99.90;;;;;;5010851;28;20075;-62
2024/01/17 06:57:26;;;;;;;23.88;10.55;;;-4.70;99.90;;;;;;5016951;28;20449;-62
2024/01/17 06:59:52;;;;;;;18.02;9.00;;;-4.70;99.90;;;;;;5020351;28;20037;-62
2024/01/17 07:02:17;;;;;;;17.05;8.60;;;-4.80;99.90;;;;;;5011726;28;20043;-62
2024/01/17 07:04:43;;;;;;;22.40;8.88;;;-4.80;99.90;;;;;;5010717;28;20037;-61
2024/01/17 07:07:08;;;;;;;21.85;9.32;;;-4.80;99.90;;;;;;5012981;28;20541;-62
2024/01/17 07:09:34;;;;;;;21.33;8.60;;;-4.80;99.90;;;;;;5017814;28;20112;-62
2024/01/17 07:11:59;;;;;;;21.30;9.18;;;-4.80;99.90;;;;;;5008522;28;20018;-62
2024/01/17 07:14:25;;;;;;;20.38;8.27;;;-4.90;99.90;;;;;;5008899;28;20613;-62
2024/01/17 07:16:50;;;;;;;17.77;8.70;;;-4.90;99.90;;;;;;5006687;28;20018;-61
2024/01/17 07:19:16;;;;;;;21.92;10.73;;;-4.90;99.90;;;;;;5016155;28;20033;-63
2024/01/17 07:21:42;;;;;;;22.52;9.82;;;-4.90;99.90;;;;;;5007811;28;20026;-62
2024/01/17 07:24:10;;;;;;;17.70;8.98;;;-4.90;99.90;;;;;;5008802;28;20053;-62
2024/01/17 07:26:36;;;;;;;18.17;10.05;;;-4.90;99.90;;;;;;5007107;28;20033;-61
2024/01/17 07:29:01;;;;;;;15.35;8.43;;;-4.80;99.90;;;;;;5005258;28;20028;-62
2024/01/17 07:31:27;;;;;;;17.75;8.75;;;-4.80;99.90;;;;;;5008516;28;20089;-61
2024/01/17 07:33:53;;;;;;;26.38;10.65;;;-4.80;99.90;;;;;;5007294;28;20021;-62
2024/01/17 07:36:18;;;;;;;15.52;8.30;;;-4.70;99.90;;;;;;5009973;28;20024;-62
2024/01/17 07:38:44;;;;;;;20.05;9.35;;;-4.70;99.90;;;;;;5009783;28;20045;-62
2024/01/17 07:41:09;;;;;;;13.80;7.57;;;-4.60;99.90;;;;;;5013329;28;20045;-61
2024/01/17 07:43:34;;;;;;;21.15;9.18;;;-4.60;99.90;;;;;;5004886;28;20392;-62
2024/01/17 07:46:00;;;;;;;15.68;8.88;;;-4.50;99.90;;;;;;5005706;28;20101;-62
2024/01/17 07:48:26;;;;;;;19.15;9.23;;;-4.40;99.90;;;;;;5009789;28;20477;-61
2024/01/17 07:50:52;;;;;;;16.55;8.40;;;-4.40;99.90;;;;;;5007159;28;20129;-62
2024/01/17 07:53:17;;;;;;;18.38;8.65;;;-4.30;99.90;;;;;;5017876;28;20038;-62
2024/01/17 07:55:43;;;;;;;14.65;8.07;;;-4.30;99.90;;;;;;5015084;28;20034;-63
2024/01/17 07:58:10;;;;;;;14.82;8.18;;;-4.20;99.90;;;;;;5014261;28;20025;-61
2024/01/17 08:00:35;;;;;;;23.85;8.55;;;-4.10;99.90;;;;;;5012016;28;20555;-62
2024/01/17 08:03:01;;;;;;;15.68;8.13;;;-4.10;99.90;;;;;;5014056;28;20030;-61
2024/01/17 08:05:26;;;;;;;14.05;7.32;;;-4.00;99.90;;;;;;5018194;28;20089;-61
2024/01/17 08:07:52;;;;;;;17.48;7.40;;;-4.00;99.90;;;;;;5018818;28;20037;-62
2024/01/17 08:10:17;;;;;;;20.38;9.07;;;-3.90;99.90;;;;;;5016024;28;20124;-62
2024/01/17 08:12:44;;;;;;;14.32;7.93;;;-3.90;99.90;;;;;;5018360;28;20482;-62
2024/01/17 08:15:10;;;;;;;19.38;7.82;;;-3.80;99.90;;;;;;5014223;28;20014;-62
2024/01/17 08:17:36;;;;;;;16.25;8.35;;;-3.70;99.90;;;;;;5016424;28;20034;-62
2024/01/17 08:20:03;;;;;;;13.77;7.60;;;-3.60;99.90;;;;;;5015488;28;20096;-62
2024/01/17 08:22:29;;;;;;;14.73;7.40;;;-3.60;99.90;;;;;;5014181;28;20152;-61
2024/01/17 08:24:54;;;;;;;59.80;20.27;;;-3.50;99.90;;;;;;5022126;28;20068;-55
2024/01/17 08:27:19;;;;;;;22.33;10.98;;;-3.40;99.90;;;;;;5016374;28;20056;-62
2024/01/17 08:29:46;;;;;;;23.63;8.85;;;-3.30;99.90;;;;;;5010898;28;20064;-62
2024/01/17 08:32:11;;;;;;;16.92;7.55;;;-3.20;99.90;;;;;;5016510;28;20033;-62
2024/01/17 08:34:37;;;;;;;21.30;9.38;;;-3.10;99.90;;;;;;5013817;28;20088;-62
2024/01/17 08:37:03;;;;;;;35.13;13.20;;;-3.00;99.90;;;;;;5021983;28;20100;-61
2024/01/17 08:39:29;;;;;;;19.90;9.10;;;-2.90;99.90;;;;;;5013980;28;20062;-61
2024/01/17 08:41:54;;;;;;;20.35;8.27;;;-2.80;99.90;;;;;;5019653;28;20416;-63
2024/01/17 08:44:20;;;;;;;16.63;8.32;;;-2.60;99.90;;;;;;5012266;28;20056;-63
2024/01/17 08:46:46;;;;;;;17.33;8.55;;;-2.40;99.90;;;;;;5015085;28;20137;-62
2024/01/17 08:49:12;;;;;;;15.82;7.90;;;-2.20;99.90;;;;;;5018936;28;20037;-62
2024/01/17 08:51:38;;;;;;;19.25;8.60;;;-2.00;99.90;;;;;;5017261;28;20521;-62
2024/01/17 08:54:04;;;;;;;20.02;8.73;;;-1.80;99.90;;;;;;5021605;28;20041;-62
2024/01/17 08:56:30;;;;;;;20.35;9.95;;;-1.70;99.90;;;;;;5018899;28;20033;-62
2024/01/17 08:58:56;;;;;;;15.93;8.50;;;-1.50;99.90;;;;;;5013031;28;20104;-62
2024/01/17 09:01:22;;;;;;;17.25;9.18;;;-1.40;99.90;;;;;;5020270;28;20768;-62
2024/01/17 09:03:48;;;;;;;16.73;8.82;;;-1.20;99.90;;;;;;5015895;28;20034;-62
2024/01/17 09:06:13;;;;;;;16.45;8.50;;;-1.00;99.90;;;;;;5021470;28;20057;-61
2024/01/17 09:08:38;;;;;;;16.50;7.85;;;-0.80;99.90;;;;;;5017554;28;20021;-61
2024/01/17 09:11:05;;;;;;;16.02;8.90;;;-0.70;99.90;;;;;;5015447;28;20543;-62
2024/01/17 09:13:31;;;;;;;16.95;8.35;;;-0.60;98.90;;;;;;5014415;28;20057;-62
2024/01/17 09:15:57;;;;;;;13.38;8.27;;;-0.50;98.70;;;;;;5015501;28;20025;-62
2024/01/17 09:18:22;;;;;;;20.65;7.88;;;-0.40;97.50;;;;;;5013282;28;20032;-62
2024/01/17 09:20:48;;;;;;;49.05;18.67;;;-0.30;97.10;;;;;;5015680;28;20024;-62
2024/01/17 09:23:13;;;;;;;21.67;10.40;;;-0.20;97.60;;;;;;5010748;28;20021;-63
2024/01/17 09:25:39;;;;;;;32.55;14.05;;;0.00;98.30;;;;;;5014238;28;20371;-63
2024/01/17 09:28:05;;;;;;;24.65;11.18;;;0.10;97.10;;;;;;5014159;28;20026;-62
2024/01/17 09:30:31;;;;;;;17.50;9.23;;;0.10;94.60;;;;;;5016158;28;20432;-63
2024/01/17 09:32:57;;;;;;;36.35;14.13;;;0.00;93.80;;;;;;5015135;28;20030;-62
2024/01/17 09:35:22;;;;;;;59.63;22.48;;;0.00;93.70;;;;;;5014976;28;20055;-62
2024/01/17 09:37:47;;;;;;;21.65;10.98;;;-0.10;92.60;;;;;;5012735;28;20030;-62
2024/01/17 09:40:13;;;;;;;52.65;18.83;;;-0.10;93.00;;;;;;5016951;28;20048;-61
2024/01/17 09:42:39;;;;;;;19.08;9.32;;;-0.10;92.50;;;;;;5011182;28;20114;-62
2024/01/17 09:45:08;;;;;;;53.42;18.98;;;-0.20;91.70;;;;;;5017176;28;20034;-62
2024/01/17 09:47:38;;;;;;;23.50;11.15;;;-0.20;92.10;;;;;;5014349;28;20095;-62
2024/01/17 09:50:05;;;;;;;25.67;10.45;;;-0.20;92.20;;;;;;5011230;28;20509;-63
2024/01/17 09:52:33;;;;;;;32.95;14.23;;;-0.20;92.10;;;;;;5014621;28;20116;-62
2024/01/17 09:55:00;;;;;;;24.20;9.52;;;-0.10;92.90;;;;;;5014930;28;20026;-62
2024/01/17 09:57:30;;;;;;;17.52;10.00;;;0.00;92.10;;;;;;5012299;28;20048;-62
2024/01/17 10:00:06;;;;;;;20.80;9.57;;;-0.10;91.70;;;;;;5014021;28;20064;-62
2024/01/17 10:02:32;;;;;;;20.65;9.18;;;0.00;91.50;;;;;;5006050;28;20061;-62
2024/01/17 10:04:59;;;;;;;18.48;10.30;;;-0.10;91.30;;;;;;5007475;28;20489;-62
2024/01/17 10:07:25;;;;;;;23.10;10.45;;;0.00;91.90;;;;;;5013283;28;20028;-62
2024/01/17 10:09:50;;;;;;;20.27;8.80;;;0.10;91.90;;;;;;5014286;28;20038;-63
2024/01/17 10:12:19;;;;;;;28.05;11.80;;;0.10;91.60;;;;;;5016178;28;20033;-62
2024/01/17 10:14:45;;;;;;;25.55;11.23;;;0.20;91.30;;;;;;5012461;28;20081;-62
2024/01/17 10:17:10;;;;;;;247.73;83.75;;;0.20;91.50;;;;;;5015188;28;20025;-63
2024/01/17 10:19:36;;;;;;;199.75;82.13;;;0.30;90.70;;;;;;5014381;28;20113;-62
2024/01/17 10:22:04;;;;;;;36.40;16.48;;;0.30;91.10;;;;;;5010533;28;20033;-62
2024/01/17 10:24:35;;;;;;;48.85;21.88;;;0.40;91.20;;;;;;5015008;28;20022;-62
2024/01/17 10:27:04;;;;;;;82.75;41.95;;;0.40;90.80;;;;;;5016736;28;20033;-62
2024/01/17 10:29:30;;;;;;;26.02;13.50;;;0.50;91.30;;;;;;5013663;28;20029;-62
2024/01/17 10:31:59;;;;;;;19.55;9.32;;;0.50;91.30;;;;;;5010741;28;20034;-62
2024/01/17 10:34:29;;;;;;;20.58;8.60;;;0.50;90.20;;;;;;5015580;28;20029;-62
2024/01/17 10:36:54;;;;;;;19.30;8.07;;;0.40;89.80;;;;;;5012908;28;20434;-62
2024/01/17 10:39:21;;;;;;;15.57;7.90;;;0.40;90.10;;;;;;5014088;28;20061;-63
2024/01/17 10:41:54;;;;;;;17.27;7.50;;;0.50;90.60;;;;;;5015367;28;20482;-63
2024/01/17 10:44:25;;;;;;;18.27;8.25;;;0.50;90.80;;;;;;5017552;28;20033;-62
2024/01/17 10:46:50;;;;;;;15.70;7.10;;;0.60;90.20;;;;;;5012741;28;20022;-63
2024/01/17 10:49:17;;;;;;;12.98;7.20;;;0.60;89.00;;;;;;5015627;28;20083;-62
2024/01/17 10:51:53;;;;;;;19.13;9.68;;;0.60;89.30;;;;;;5011678;28;20488;-62
2024/01/17 10:54:24;;;;;;;13.85;7.78;;;0.60;88.50;;;;;;5010099;28;20018;-63
2024/01/17 10:56:53;;;;;;;13.75;7.15;;;0.60;88.50;;;;;;5017769;28;20036;-63
2024/01/17 10:59:20;;;;;;;13.93;8.48;;;0.60;88.20;;;;;;5018151;28;20077;-63
2024/01/17 11:01:49;;;;;;;19.60;7.72;;;0.60;88.40;;;;;;5008064;28;20033;-63
2024/01/17 11:04:20;;;;;;;11.90;6.80;;;0.60;87.60;;;;;;5013389;28;20037;-63
2024/01/17 11:06:48;;;;;;;17.00;7.28;;;0.70;88.50;;;;;;5010817;28;20360;-63
2024/01/17 11:09:15;;;;;;;15.70;7.28;;;0.80;87.50;;;;;;5014469;28;20021;-62
2024/01/17 11:11:42;;;;;;;16.08;7.75;;;0.70;86.60;;;;;;5011414;28;20116;-62
2024/01/17 11:14:08;;;;;;;14.38;6.80;;;0.80;87.70;;;;;;5012566;28;20025;-62
2024/01/17 11:16:36;;;;;;;17.77;7.57;;;0.80;87.20;;;;;;5016902;28;20029;-62
2024/01/17 11:19:03;;;;;;;15.55;7.07;;;0.80;86.60;;;;;;5012332;28;20025;-63
2024/01/17 11:21:30;;;;;;;17.65;8.07;;;0.80;86.20;;;;;;5013162;28;20116;-62
2024/01/17 11:23:56;;;;;;;16.10;7.47;;;0.80;86.40;;;;;;5015304;28;20666;-62
2024/01/17 11:26:32;;;;;;;15.73;7.60;;;0.80;85.40;;;;;;5019305;28;20530;-62
2024/01/17 11:29:06;;;;;;;14.98;6.97;;;0.80;85.00;;;;;;5016538;28;20075;-63
2024/01/17 11:31:40;;;;;;;15.55;7.93;;;0.90;84.90;;;;;;5021239;28;20034;-62
2024/01/17 11:34:07;;;;;;;13.00;6.82;;;0.90;85.50;;;;;;5016242;28;20033;-62
2024/01/17 11:36:45;;;;;;;13.77;7.03;;;1.00;85.30;;;;;;5019750;28;20044;-62
2024/01/17 11:39:15;;;;;;;14.77;7.45;;;1.10;85.10;;;;;;5013696;28;20105;-62
2024/01/17 11:41:42;;;;;;;16.00;7.57;;;1.10;85.20;;;;;;5023058;28;20075;-62
2024/01/17 11:44:10;;;;;;;14.43;6.75;;;1.10;83.80;;;;;;5015606;28;20026;-61
2024/01/17 11:46:39;;;;;;;13.55;6.75;;;1.10;83.50;;;;;;5021358;28;20045;-62
2024/01/17 11:49:09;;;;;;;16.15;6.90;;;1.10;83.60;;;;;;5017175;28;20028;-63
2024/01/17 11:51:34;;;;;;;14.70;7.00;;;1.10;84.70;;;;;;5017169;28;20014;-62
2024/01/17 11:54:03;;;;;;;12.18;6.93;;;1.10;84.80;;;;;;5023104;28;20171;-62
2024/01/17 11:56:29;;;;;;;9.77;6.85;;;1.20;85.00;;;;;;5016674;28;20025;-62
2024/01/17 11:59:03;;;;;;;17.08;7.35;;;1.20;84.20;;;;;;5017154;28;20056;-63
2024/01/17 12:01:31;;;;;;;16.85;8.25;;;1.10;83.90;;;;;;5013397;28;20029;-62
2024/01/17 12:03:56;;;;;;;14.85;7.97;;;1.10;84.00;;;;;;5018885;28;20525;-62
2024/01/17 12:06:22;;;;;;;13.23;7.80;;;1.10;82.90;;;;;;5016443;28;20022;-62
2024/01/17 12:08:56;;;;;;;16.98;9.10;;;1.00;83.30;;;;;;5015811;28;20025;-62
2024/01/17 12:11:23;;;;;;;19.30;8.23;;;1.00;84.10;;;;;;5018718;28;20028;-62
2024/01/17 12:13:52;;;;;;;17.63;8.00;;;1.00;84.80;;;;;;5014418;28;20014;-62
2024/01/17 12:16:21;;;;;;;17.77;8.20;;;1.00;84.80;;;;;;5012192;28;20022;-62
2024/01/17 12:18:56;;;;;;;65.30;28.50;;;0.90;83.20;;;;;;5018861;28;20103;-63
2024/01/17 12:21:21;;;;;;;20.55;11.02;;;0.90;84.10;;;;;;5013174;28;20026;-62
2024/01/17 12:23:47;;;;;;;41.38;19.50;;;0.90;84.10;;;;;;5014117;28;20084;-63
2024/01/17 12:26:13;;;;;;;15.48;8.43;;;0.80;83.30;;;;;;5017769;28;20034;-62
2024/01/17 12:28:39;;;;;;;15.15;7.57;;;0.80;83.80;;;;;;5016211;28;20037;-63
2024/01/17 12:31:06;;;;;;;13.55;7.38;;;0.80;82.50;;;;;;5019354;28;20040;-63